Sauk City, Wisconsin
Current Conditions -  °F | °C
As of 8:15 AM on Wednesday 28 Jan 2015 (Local Time) from KC29 Reporting Station
Overcast Overcast  
Wind Chill: 17°   Ceiling: 1100
Heat Index: 27°   Visibility: 10mi
Dew Point: 22°   Wind: 12mph
Humidity: 82%   Direction: 170°S
Pressure: 30.19"   Gusts: 17mph
Location:  43.27°N, 89.72°W
Report Text: KC29 281415Z AUTO 17010G15KT 10SM OVC011 M03/M05 A3019 RMK AO1 T10281055
Loading
Personal Weather Stations






























Interactive Weather Map New forecast layout! Learn more

10-Day Weather Forecast

Advertisements
Track Severe Weather on mobile